Time;durP1;ratioP1;P1;durP2;ratioP2;P2;SDS_P1;SDS_P2;PMS_P1;PMS_P2;Temp;Humidity;BMP_temperature;BMP_pressure;BME280_temperature;BME280_humidity;BME280_pressure;Samples;Min_cycle;Max_cycle;Signal;HPM_P1;HPM_P2
2021/09/04 00:00:40;;;;;;;34.90;31.30;;;15.40;99.90;;;;;;5135556;27;20480;-71
2021/09/04 00:03:07;;;;;;;33.87;30.67;;;15.40;99.90;;;;;;5133441;27;20483;-70
2021/09/04 00:05:34;;;;;;;37.33;31.37;;;15.50;99.90;;;;;;5123688;27;20443;-71
2021/09/04 00:08:01;;;;;;;34.47;30.77;;;15.50;99.90;;;;;;5126185;27;20740;-71
2021/09/04 00:10:29;;;;;;;40.80;32.60;;;15.50;99.90;;;;;;5126717;27;20460;-72
2021/09/04 00:12:58;;;;;;;33.40;29.60;;;15.50;99.90;;;;;;5129337;27;20617;-71
2021/09/04 00:15:26;;;;;;;36.37;30.07;;;15.50;99.90;;;;;;5134376;27;20467;-71
2021/09/04 00:17:54;;;;;;;36.47;31.53;;;15.60;99.90;;;;;;5133364;27;20842;-71
2021/09/04 00:20:23;;;;;;;35.00;31.10;;;15.60;99.90;;;;;;5127731;27;20448;-71
2021/09/04 00:22:50;;;;;;;37.33;31.70;;;15.60;99.90;;;;;;5124292;27;20490;-71
2021/09/04 00:25:17;;;;;;;35.43;31.57;;;15.60;99.90;;;;;;5131980;27;20538;-71
2021/09/04 00:27:44;;;;;;;35.30;31.60;;;15.60;99.90;;;;;;5130289;27;20453;-72
2021/09/04 00:30:14;;;;;;;36.30;31.40;;;15.60;99.90;;;;;;5135628;27;20459;-72
2021/09/04 00:32:42;;;;;;;33.57;30.27;;;15.60;99.90;;;;;;5132869;27;20961;-72
2021/09/04 00:35:10;;;;;;;35.97;30.93;;;15.60;99.90;;;;;;5121627;27;20467;-71
2021/09/04 00:37:37;;;;;;;34.63;30.00;;;15.60;99.90;;;;;;5126841;27;20488;-71
2021/09/04 00:40:05;;;;;;;34.17;30.53;;;15.50;99.90;;;;;;5122146;27;20811;-72
2021/09/04 00:42:32;;;;;;;36.07;31.77;;;15.50;99.90;;;;;;5131656;27;20472;-71
2021/09/04 00:45:00;;;;;;;34.83;29.50;;;15.50;99.90;;;;;;5141152;27;20459;-72
2021/09/04 00:47:30;;;;;;;40.00;31.70;;;15.50;99.90;;;;;;5136768;27;20451;-71
2021/09/04 00:49:57;;;;;;;38.70;32.87;;;15.50;99.90;;;;;;5127808;27;20452;-72
2021/09/04 00:52:24;;;;;;;37.20;30.70;;;15.50;99.90;;;;;;5129356;27;20465;-71
2021/09/04 00:54:51;;;;;;;32.80;29.60;;;15.50;99.90;;;;;;5134109;27;21030;-71
2021/09/04 00:57:19;;;;;;;40.40;30.07;;;15.60;99.90;;;;;;5124494;27;21102;-72
2021/09/04 00:59:46;;;;;;;36.33;31.47;;;15.50;99.90;;;;;;5133055;27;20464;-72
2021/09/04 01:02:13;;;;;;;36.30;31.13;;;15.50;99.90;;;;;;5138869;27;20897;-72
2021/09/04 01:04:41;;;;;;;33.87;30.17;;;15.40;99.90;;;;;;5130215;27;20463;-72
2021/09/04 01:07:09;;;;;;;36.13;32.17;;;15.40;99.90;;;;;;5130628;27;20465;-71
2021/09/04 01:09:35;;;;;;;33.97;30.17;;;15.30;99.90;;;;;;5136112;27;20456;-72
2021/09/04 01:12:03;;;;;;;36.47;32.57;;;15.30;99.90;;;;;;5122131;27;20452;-72
2021/09/04 01:14:32;;;;;;;41.57;31.00;;;15.20;99.90;;;;;;5130312;27;20791;-71
2021/09/04 01:16:59;;;;;;;38.90;32.30;;;15.20;99.90;;;;;;5125486;27;20482;-72
2021/09/04 01:19:27;;;;;;;38.43;32.80;;;15.20;99.90;;;;;;5122153;27;20452;-72
2021/09/04 01:21:55;;;;;;;36.97;32.93;;;15.10;99.90;;;;;;5132354;27;20460;-73
2021/09/04 01:24:23;;;;;;;37.00;32.70;;;15.10;99.90;;;;;;5136799;27;20453;-72
2021/09/04 01:26:52;;;;;;;41.80;34.67;;;15.10;99.90;;;;;;5131492;27;20490;-72
2021/09/04 01:29:19;;;;;;;35.30;31.57;;;15.10;99.90;;;;;;5135450;27;20536;-72
2021/09/04 01:31:47;;;;;;;40.50;32.90;;;15.10;99.90;;;;;;5122287;27;20456;-71
2021/09/04 01:34:15;;;;;;;39.57;35.20;;;15.10;99.90;;;;;;5126388;27;20457;-73
2021/09/04 01:36:42;;;;;;;47.87;36.47;;;15.00;99.90;;;;;;5124445;27;20476;-72
2021/09/04 01:39:11;;;;;;;41.70;35.07;;;15.00;99.90;;;;;;5120412;27;20843;-72
2021/09/04 01:41:40;;;;;;;47.93;35.10;;;14.90;99.90;;;;;;5133861;27;20931;-73
2021/09/04 01:44:10;;;;;;;39.33;34.83;;;14.90;99.90;;;;;;5134086;27;20504;-72
2021/09/04 01:46:38;;;;;;;42.70;36.77;;;15.00;99.90;;;;;;5127953;27;20452;-72
2021/09/04 01:49:05;;;;;;;37.53;33.80;;;14.90;99.90;;;;;;5128342;27;20445;-72
2021/09/04 01:51:32;;;;;;;50.17;34.83;;;14.80;99.90;;;;;;5118818;27;20449;-72
2021/09/04 01:53:59;;;;;;;45.43;34.97;;;14.80;99.90;;;;;;5128472;27;20448;-72
2021/09/04 01:56:27;;;;;;;42.90;35.97;;;14.70;99.90;;;;;;5127935;27;20895;-72
2021/09/04 01:58:55;;;;;;;45.20;36.23;;;14.70;99.90;;;;;;5130732;27;20514;-73
2021/09/04 02:01:24;;;;;;;42.00;37.40;;;14.70;99.90;;;;;;5128500;27;20781;-73
2021/09/04 02:03:51;;;;;;;50.97;36.53;;;14.60;99.90;;;;;;5118088;28;20530;-72
2021/09/04 02:06:18;;;;;;;52.63;38.60;;;14.50;99.90;;;;;;5136070;27;20817;-71
2021/09/04 02:08:45;;;;;;;46.50;36.43;;;14.50;99.90;;;;;;5132129;27;20816;-72
2021/09/04 02:11:12;;;;;;;45.53;37.10;;;14.40;99.90;;;;;;5134745;27;20479;-72
2021/09/04 02:13:39;;;;;;;47.23;39.40;;;14.50;99.90;;;;;;5124700;27;20451;-72
2021/09/04 02:16:06;;;;;;;60.33;38.83;;;14.50;99.90;;;;;;5092150;27;1056520;-72
2021/09/04 02:18:36;;;;;;;42.90;37.33;;;14.40;99.90;;;;;;5135470;27;20223;-72
2021/09/04 02:21:03;;;;;;;50.30;37.67;;;14.30;99.90;;;;;;5132866;27;20451;-72
2021/09/04 02:23:30;;;;;;;49.73;38.00;;;14.20;99.90;;;;;;5126041;27;20459;-71
2021/09/04 02:25:57;;;;;;;42.40;35.77;;;14.20;99.90;;;;;;5122706;27;20464;-72
2021/09/04 02:28:25;;;;;;;60.70;40.60;;;14.20;99.90;;;;;;5121324;27;20457;-71
2021/09/04 02:30:52;;;;;;;45.00;38.77;;;14.20;99.90;;;;;;5130430;27;20456;-71
2021/09/04 02:33:20;;;;;;;55.10;38.47;;;14.20;99.90;;;;;;5128530;27;20469;-71
2021/09/04 02:35:48;;;;;;;53.10;38.87;;;14.20;99.90;;;;;;5127786;27;20448;-71
2021/09/04 02:38:15;;;;;;;55.17;39.40;;;14.20;99.90;;;;;;5118258;27;20477;-72
2021/09/04 02:40:42;;;;;;;55.87;39.20;;;14.10;99.90;;;;;;5123971;27;20460;-71
2021/09/04 02:43:09;;;;;;;47.30;38.10;;;14.10;99.90;;;;;;5128917;27;20467;-72
2021/09/04 02:45:36;;;;;;;54.80;40.13;;;14.00;99.90;;;;;;5134007;27;21049;-72
2021/09/04 02:48:03;;;;;;;55.20;38.13;;;13.90;99.90;;;;;;5134384;27;20817;-72
2021/09/04 02:50:30;;;;;;;55.57;41.43;;;13.90;99.90;;;;;;5131812;27;20457;-72
2021/09/04 02:52:58;;;;;;;53.23;40.40;;;13.90;99.90;;;;;;5121555;27;20822;-72
2021/09/04 02:55:25;;;;;;;59.97;38.87;;;13.90;99.90;;;;;;5118223;27;20981;-72
2021/09/04 02:57:52;;;;;;;49.43;38.73;;;14.00;99.90;;;;;;5132026;27;20484;-72
2021/09/04 03:00:19;;;;;;;63.77;38.40;;;13.90;99.90;;;;;;5135496;27;20459;-72
2021/09/04 03:02:48;;;;;;;65.57;41.57;;;14.00;99.90;;;;;;5126088;27;20468;-72
2021/09/04 03:05:15;;;;;;;55.80;40.97;;;14.00;99.90;;;;;;5125410;27;20539;-71
2021/09/04 03:07:41;;;;;;;56.93;41.00;;;14.00;99.90;;;;;;5125505;27;20475;-71
2021/09/04 03:10:11;;;;;;;53.47;39.23;;;14.00;99.90;;;;;;5134700;27;20533;-71
2021/09/04 03:12:39;;;;;;;57.80;40.27;;;14.00;99.90;;;;;;5134505;27;20810;-72
2021/09/04 03:15:06;;;;;;;53.30;40.00;;;14.00;99.90;;;;;;5126201;27;20885;-72
2021/09/04 03:17:33;;;;;;;55.87;41.07;;;13.90;99.90;;;;;;5124584;27;20831;-71
2021/09/04 03:20:01;;;;;;;62.60;39.90;;;13.80;99.90;;;;;;5127409;27;20458;-71
2021/09/04 03:22:28;;;;;;;62.60;41.30;;;13.80;99.90;;;;;;5128090;27;20477;-72
2021/09/04 03:24:55;;;;;;;55.73;40.03;;;13.70;99.90;;;;;;5126903;27;20471;-71
2021/09/04 03:27:23;;;;;;;64.57;42.50;;;13.80;99.90;;;;;;5127801;27;20455;-72
2021/09/04 03:29:51;;;;;;;55.37;40.10;;;13.70;99.90;;;;;;5128293;27;20463;-71
2021/09/04 03:32:18;;;;;;;56.03;42.63;;;13.70;99.90;;;;;;5126025;27;20617;-72
2021/09/04 03:34:44;;;;;;;60.80;41.07;;;13.70;99.90;;;;;;5134332;27;20464;-72
2021/09/04 03:37:13;;;;;;;69.93;42.93;;;13.70;99.90;;;;;;5138840;27;20768;-71
2021/09/04 03:39:42;;;;;;;60.40;40.87;;;13.70;99.90;;;;;;5131036;27;20527;-72
2021/09/04 03:42:11;;;;;;;69.67;42.93;;;13.70;99.90;;;;;;5122983;27;20463;-71
2021/09/04 03:44:40;;;;;;;59.10;41.93;;;13.70;99.90;;;;;;5129292;27;20456;-71
2021/09/04 03:47:07;;;;;;;58.13;41.60;;;13.70;99.90;;;;;;5125807;27;20458;-71
2021/09/04 03:49:35;;;;;;;62.57;43.80;;;13.70;99.90;;;;;;5135284;27;20448;-71
2021/09/04 03:52:02;;;;;;;59.13;40.37;;;13.70;99.90;;;;;;5116621;27;20544;-71
2021/09/04 03:54:29;;;;;;;51.47;38.20;;;13.70;99.90;;;;;;5128867;27;20816;-72
2021/09/04 03:56:57;;;;;;;59.43;41.77;;;13.70;99.90;;;;;;5133204;27;20467;-71
2021/09/04 03:59:24;;;;;;;67.57;42.83;;;13.70;99.90;;;;;;5133269;27;20479;-71
2021/09/04 04:01:52;;;;;;;51.73;37.43;;;13.70;99.90;;;;;;5124512;27;20456;-72
2021/09/04 04:04:19;;;;;;;57.80;38.27;;;13.70;99.90;;;;;;5132153;27;20803;-71
2021/09/04 04:06:46;;;;;;;56.13;41.53;;;13.70;99.90;;;;;;5124713;27;20455;-71
2021/09/04 04:09:13;;;;;;;63.60;42.53;;;13.70;99.90;;;;;;5120876;27;20460;-72
2021/09/04 04:11:41;;;;;;;68.93;43.20;;;13.70;99.90;;;;;;5123792;27;20457;-71
2021/09/04 04:14:09;;;;;;;69.90;43.90;;;13.80;99.90;;;;;;5134470;27;20452;-71
2021/09/04 04:16:37;;;;;;;66.17;43.13;;;13.70;99.90;;;;;;5126319;27;20468;-70
2021/09/04 04:19:06;;;;;;;67.57;42.23;;;13.80;99.90;;;;;;5130416;27;20540;-71
2021/09/04 04:21:33;;;;;;;68.17;44.60;;;13.80;99.90;;;;;;5123568;27;20465;-71
2021/09/04 04:24:00;;;;;;;65.27;43.27;;;13.70;99.90;;;;;;5132194;27;20451;-70
2021/09/04 04:26:27;;;;;;;70.83;44.40;;;13.80;99.90;;;;;;5126342;27;20456;-71
2021/09/04 04:28:55;;;;;;;64.73;44.10;;;13.70;99.90;;;;;;5123734;28;20445;-71
2021/09/04 04:31:22;;;;;;;67.00;43.20;;;13.70;99.90;;;;;;5124206;27;20479;-71
2021/09/04 04:33:49;;;;;;;67.10;43.10;;;13.70;99.90;;;;;;5121217;28;20458;-71
2021/09/04 04:36:18;;;;;;;72.73;45.43;;;13.80;99.90;;;;;;5132644;27;20472;-70
2021/09/04 04:38:44;;;;;;;65.80;44.63;;;13.80;99.90;;;;;;5116344;27;20483;-71
2021/09/04 04:41:11;;;;;;;69.03;43.47;;;13.80;99.90;;;;;;5128823;27;20456;-71
2021/09/04 04:43:39;;;;;;;66.43;42.63;;;13.80;99.90;;;;;;5130444;27;20482;-71
2021/09/04 04:46:07;;;;;;;65.23;43.80;;;13.80;99.90;;;;;;5134631;27;20519;-70
2021/09/04 04:48:34;;;;;;;74.80;45.30;;;13.70;99.90;;;;;;5136541;27;20511;-70
2021/09/04 04:51:01;;;;;;;73.97;44.27;;;13.70;99.90;;;;;;5121125;28;20949;-71
2021/09/04 04:53:29;;;;;;;66.27;45.10;;;13.70;99.90;;;;;;5129197;27;20456;-70
2021/09/04 04:55:59;;;;;;;64.00;43.13;;;13.70;99.90;;;;;;5121580;27;20463;-71
2021/09/04 04:58:27;;;;;;;66.90;45.30;;;13.70;99.90;;;;;;5121335;28;20489;-72
2021/09/04 05:00:53;;;;;;;72.10;47.23;;;13.70;99.90;;;;;;5124539;27;20461;-71
2021/09/04 05:03:21;;;;;;;72.70;47.00;;;13.80;99.90;;;;;;5129746;27;20484;-71
2021/09/04 05:05:49;;;;;;;71.90;44.53;;;13.80;99.90;;;;;;5125793;27;20459;-71
2021/09/04 05:08:17;;;;;;;71.33;43.77;;;13.80;99.90;;;;;;5129059;27;20451;-71
2021/09/04 05:10:47;;;;;;;71.50;44.73;;;13.80;99.90;;;;;;5125142;27;20539;-70
2021/09/04 05:13:13;;;;;;;84.63;43.77;;;13.80;99.90;;;;;;5128937;27;20453;-71
2021/09/04 05:15:40;;;;;;;76.60;46.97;;;13.80;99.90;;;;;;5128127;27;20452;-70
2021/09/04 05:18:10;;;;;;;75.63;46.10;;;13.80;99.90;;;;;;5139242;27;20488;-70
2021/09/04 05:20:38;;;;;;;84.67;46.33;;;13.80;99.90;;;;;;5126595;27;20539;-71
2021/09/04 05:23:05;;;;;;;81.80;46.30;;;13.90;99.90;;;;;;5125256;27;20452;-70
2021/09/04 05:25:32;;;;;;;88.50;47.73;;;14.00;99.90;;;;;;5128581;27;20459;-70
2021/09/04 05:28:00;;;;;;;85.97;49.90;;;14.10;99.90;;;;;;5130135;27;20460;-71
2021/09/04 05:30:27;;;;;;;85.87;47.00;;;14.20;99.90;;;;;;5139868;27;20458;-70
2021/09/04 05:32:56;;;;;;;88.70;50.07;;;14.30;99.90;;;;;;5131136;27;20518;-70
2021/09/04 05:35:24;;;;;;;80.70;49.87;;;14.30;99.90;;;;;;5123124;27;20460;-71
2021/09/04 05:37:51;;;;;;;95.07;52.77;;;14.30;99.90;;;;;;5122442;27;20449;-70
2021/09/04 05:40:18;;;;;;;87.37;51.57;;;14.30;99.90;;;;;;5135499;27;20465;-70
2021/09/04 05:42:45;;;;;;;101.60;50.87;;;14.30;99.90;;;;;;5132662;27;20534;-70
2021/09/04 05:45:13;;;;;;;96.77;51.67;;;14.30;99.90;;;;;;5127209;27;20460;-71
2021/09/04 05:47:40;;;;;;;93.87;52.47;;;14.40;99.90;;;;;;5131802;27;20461;-71
2021/09/04 05:50:08;;;;;;;115.73;57.50;;;14.40;99.90;;;;;;5133363;27;23067;-70
2021/09/04 05:52:36;;;;;;;108.20;54.90;;;14.40;99.90;;;;;;5134170;27;20800;-71
2021/09/04 05:55:03;;;;;;;94.43;52.90;;;14.50;99.90;;;;;;5122347;27;21317;-70
2021/09/04 05:57:30;;;;;;;97.53;53.87;;;14.60;99.90;;;;;;5125046;27;20469;-71
2021/09/04 05:59:57;;;;;;;99.90;51.60;;;14.80;99.90;;;;;;5125679;27;20480;-70
2021/09/04 06:02:27;;;;;;;107.70;55.47;;;14.60;99.90;;;;;;5125643;27;20508;-71
2021/09/04 06:04:54;;;;;;;106.37;54.43;;;14.60;99.90;;;;;;5128088;27;20453;-71
2021/09/04 06:07:21;;;;;;;121.10;55.97;;;14.70;99.90;;;;;;5126864;27;20440;-72
2021/09/04 06:09:49;;;;;;;108.30;54.00;;;14.90;99.90;;;;;;5132834;27;20456;-70
2021/09/04 06:12:16;;;;;;;114.60;57.33;;;15.00;99.90;;;;;;5120907;27;20484;-71
2021/09/04 06:14:43;;;;;;;108.27;58.97;;;14.90;99.90;;;;;;5121999;27;20467;-72
2021/09/04 06:17:10;;;;;;;100.40;54.47;;;15.10;99.90;;;;;;5123419;27;20804;-71
2021/09/04 06:19:40;;;;;;;99.43;54.80;;;15.10;99.90;;;;;;5124459;27;20491;-70
2021/09/04 06:22:07;;;;;;;111.10;56.50;;;15.00;99.90;;;;;;5123994;27;20457;-71
2021/09/04 06:24:34;;;;;;;107.43;55.30;;;15.00;99.90;;;;;;5128780;27;20459;-71
2021/09/04 06:27:02;;;;;;;122.53;55.77;;;15.00;99.90;;;;;;5123036;27;20951;-71
2021/09/04 06:29:29;;;;;;;111.50;55.40;;;15.00;99.90;;;;;;5126036;27;20461;-71
2021/09/04 06:31:57;;;;;;;95.97;54.17;;;15.00;99.90;;;;;;5128557;27;20505;-71
2021/09/04 06:34:25;;;;;;;95.60;52.50;;;15.20;99.90;;;;;;5127289;27;20460;-72
2021/09/04 06:36:54;;;;;;;111.73;56.10;;;15.40;99.90;;;;;;5126909;27;20469;-72
2021/09/04 06:39:21;;;;;;;102.40;56.40;;;15.50;99.90;;;;;;5125780;27;20483;-72
2021/09/04 06:41:49;;;;;;;122.47;60.20;;;15.70;99.90;;;;;;5121145;27;20716;-72
2021/09/04 06:44:16;;;;;;;124.23;57.77;;;15.70;99.90;;;;;;5126894;27;20540;-72
2021/09/04 06:46:43;;;;;;;113.40;59.60;;;15.80;99.90;;;;;;5125696;27;20450;-71
2021/09/04 06:49:10;;;;;;;122.03;58.53;;;15.80;99.90;;;;;;5130623;27;20467;-71
2021/09/04 06:51:38;;;;;;;115.10;59.67;;;15.80;99.90;;;;;;5120757;27;20480;-71
2021/09/04 06:54:06;;;;;;;107.73;58.83;;;16.00;99.90;;;;;;5123710;27;20465;-71
2021/09/04 06:56:33;;;;;;;114.97;58.27;;;15.80;99.90;;;;;;5120223;27;20456;-71
2021/09/04 06:59:01;;;;;;;97.40;54.73;;;15.90;99.90;;;;;;5131371;27;20479;-71
2021/09/04 07:01:29;;;;;;;100.03;56.83;;;16.10;99.90;;;;;;5122323;27;20460;-72
2021/09/04 07:03:57;;;;;;;103.67;54.90;;;15.90;99.90;;;;;;5122321;27;20452;-72
2021/09/04 07:06:24;;;;;;;88.63;53.63;;;16.00;99.90;;;;;;5121711;27;20457;-72
2021/09/04 07:08:52;;;;;;;92.43;54.13;;;16.10;99.90;;;;;;5124491;27;21037;-72
2021/09/04 07:11:20;;;;;;;93.10;53.60;;;16.10;99.90;;;;;;5126532;27;20457;-72
2021/09/04 07:13:46;;;;;;;89.77;50.60;;;16.20;99.90;;;;;;5126129;27;20452;-71
2021/09/04 07:16:14;;;;;;;92.50;54.70;;;16.10;99.90;;;;;;5117272;27;20986;-72
2021/09/04 07:18:42;;;;;;;83.93;51.63;;;16.10;99.90;;;;;;5121749;27;20484;-72
2021/09/04 07:21:09;;;;;;;87.10;53.60;;;16.30;99.90;;;;;;5123462;27;20456;-73
2021/09/04 07:23:37;;;;;;;94.63;53.90;;;16.20;99.90;;;;;;5131999;27;20939;-72
2021/09/04 07:26:04;;;;;;;95.60;51.00;;;16.20;99.90;;;;;;5128975;27;20448;-70
2021/09/04 07:28:32;;;;;;;88.97;52.07;;;16.30;99.90;;;;;;5128353;27;20456;-71
2021/09/04 07:31:00;;;;;;;97.43;50.40;;;16.30;99.90;;;;;;5128114;27;20452;-72
2021/09/04 07:33:27;;;;;;;87.17;49.97;;;16.20;99.90;;;;;;5130872;27;20505;-71
2021/09/04 07:35:54;;;;;;;82.53;52.20;;;16.30;99.90;;;;;;5114235;27;20551;-72
2021/09/04 07:38:23;;;;;;;87.47;48.47;;;16.40;99.90;;;;;;5129565;27;21052;-72
2021/09/04 07:40:51;;;;;;;83.10;50.07;;;16.40;99.90;;;;;;5120616;27;20457;-71
2021/09/04 07:43:19;;;;;;;88.40;48.93;;;16.50;99.90;;;;;;5130520;27;20959;-72
2021/09/04 07:45:48;;;;;;;81.67;49.80;;;16.50;99.90;;;;;;5118806;27;20464;-71
2021/09/04 07:48:16;;;;;;;74.90;47.93;;;16.80;99.90;;;;;;5120835;27;20457;-72
2021/09/04 07:50:43;;;;;;;80.23;51.17;;;17.00;99.90;;;;;;5125381;27;20457;-72
2021/09/04 07:53:11;;;;;;;75.77;48.80;;;17.20;99.90;;;;;;5123175;27;20461;-72
2021/09/04 07:55:39;;;;;;;89.97;50.90;;;17.20;99.90;;;;;;5137622;27;20451;-73
2021/09/04 07:58:06;;;;;;;79.07;47.87;;;17.00;99.90;;;;;;5122602;27;20460;-72
2021/09/04 08:00:33;;;;;;;80.40;48.87;;;17.20;99.90;;;;;;5121592;27;20499;-71
2021/09/04 08:03:01;;;;;;;68.70;46.37;;;17.10;99.90;;;;;;5123438;27;20484;-72
2021/09/04 08:05:28;;;;;;;82.50;48.37;;;17.10;99.90;;;;;;5123864;27;20456;-72
2021/09/04 08:07:55;;;;;;;71.30;47.50;;;17.10;99.90;;;;;;5128561;27;20804;-72
2021/09/04 08:10:22;;;;;;;74.67;47.60;;;17.10;99.90;;;;;;5123821;27;20477;-73
2021/09/04 08:12:50;;;;;;;77.43;47.70;;;17.10;99.90;;;;;;5119263;28;20453;-71
2021/09/04 08:15:17;;;;;;;77.50;46.77;;;17.00;99.90;;;;;;5122648;27;20492;-71
2021/09/04 08:17:44;;;;;;;73.20;45.40;;;16.90;99.90;;;;;;5114221;28;20476;-72
2021/09/04 08:20:13;;;;;;;80.33;48.00;;;16.80;99.90;;;;;;5128008;27;20502;-72
2021/09/04 08:22:41;;;;;;;69.37;46.33;;;16.90;99.90;;;;;;5117337;28;20851;-72
2021/09/04 08:25:08;;;;;;;81.13;48.70;;;16.70;99.90;;;;;;5120754;27;20460;-73
2021/09/04 08:27:35;;;;;;;82.17;47.93;;;16.90;99.90;;;;;;5122797;27;20455;-71
2021/09/04 08:30:03;;;;;;;74.27;46.30;;;17.10;99.90;;;;;;5119581;27;20461;-72
2021/09/04 08:32:29;;;;;;;83.50;48.67;;;17.20;99.90;;;;;;5128441;27;20456;-72
2021/09/04 08:34:57;;;;;;;73.90;47.30;;;17.30;99.90;;;;;;5114665;28;20468;-73
2021/09/04 08:37:26;;;;;;;83.53;49.73;;;17.40;99.90;;;;;;5129278;27;20458;-73
2021/09/04 08:39:53;;;;;;;82.77;48.87;;;17.60;99.90;;;;;;5113758;28;20483;-72
2021/09/04 08:42:21;;;;;;;71.07;45.30;;;17.90;99.90;;;;;;5115619;28;20454;-71
2021/09/04 08:44:48;;;;;;;77.57;45.07;;;18.10;99.90;;;;;;5128725;27;20495;-72
2021/09/04 08:47:15;;;;;;;68.67;45.47;;;18.20;99.90;;;;;;5120817;27;20962;-72
2021/09/04 08:49:42;;;;;;;67.40;44.27;;;18.40;99.90;;;;;;5116976;27;20457;-74
2021/09/04 08:52:10;;;;;;;62.93;42.97;;;18.60;99.90;;;;;;5121639;27;20728;-73
2021/09/04 08:54:38;;;;;;;68.80;45.00;;;18.30;99.90;;;;;;5119515;27;20460;-72
2021/09/04 08:57:06;;;;;;;65.30;43.60;;;18.60;99.90;;;;;;5120931;27;20459;-72
2021/09/04 08:59:33;;;;;;;62.87;42.00;;;18.50;99.90;;;;;;5119417;27;20915;-73
2021/09/04 09:02:03;;;;;;;68.07;43.87;;;18.40;99.90;;;;;;5123111;27;20479;-72
2021/09/04 09:04:32;;;;;;;64.53;43.63;;;18.70;99.90;;;;;;5120905;27;20473;-73
2021/09/04 09:07:00;;;;;;;57.67;41.00;;;18.50;99.90;;;;;;5122011;27;20472;-73
2021/09/04 09:09:27;;;;;;;73.47;42.80;;;18.60;99.90;;;;;;5124914;27;20474;-73
2021/09/04 09:11:58;;;;;;;57.10;41.80;;;18.50;99.90;;;;;;5121574;27;20467;-72
2021/09/04 09:14:28;;;;;;;55.20;39.80;;;18.90;99.90;;;;;;5121729;27;20461;-73
2021/09/04 09:16:56;;;;;;;66.80;43.37;;;19.20;99.90;;;;;;5120693;27;20491;-72
2021/09/04 09:19:27;;;;;;;64.37;42.30;;;19.40;99.90;;;;;;5137664;27;20479;-72
2021/09/04 09:21:56;;;;;;;63.63;43.97;;;19.20;99.90;;;;;;5123710;27;20457;-72
2021/09/04 09:24:24;;;;;;;66.93;43.77;;;19.30;99.90;;;;;;5122486;27;20529;-72
2021/09/04 09:26:53;;;;;;;66.67;44.40;;;19.40;99.90;;;;;;5119155;27;20460;-72
2021/09/04 09:29:23;;;;;;;72.20;44.77;;;19.50;99.90;;;;;;5116148;27;20463;-72
2021/09/04 09:31:59;;;;;;;64.77;43.43;;;19.40;99.90;;;;;;5125407;27;20525;-70
2021/09/04 09:34:26;;;;;;;64.80;43.80;;;19.30;99.90;;;;;;5128068;27;20546;-72
2021/09/04 09:36:54;;;;;;;55.57;40.67;;;19.40;99.90;;;;;;5120633;27;20462;-72
2021/09/04 09:39:27;;;;;;;64.47;43.80;;;19.70;99.90;;;;;;5120213;27;20511;-72
2021/09/04 09:41:55;;;;;;;61.07;43.67;;;19.60;99.90;;;;;;5117682;27;20464;-72
2021/09/04 09:44:25;;;;;;;56.83;40.73;;;19.80;99.90;;;;;;5119258;27;20456;-72
2021/09/04 09:46:55;;;;;;;55.97;41.57;;;20.00;99.90;;;;;;5128348;27;20452;-71
2021/09/04 09:49:30;;;;;;;53.03;39.97;;;20.50;99.90;;;;;;5125519;27;20798;-73
2021/09/04 09:51:59;;;;;;;52.47;37.60;;;20.70;99.90;;;;;;5118724;27;20496;-72
2021/09/04 09:54:28;;;;;;;52.50;38.30;;;21.20;99.90;;;;;;5119350;27;20817;-72
2021/09/04 09:56:57;;;;;;;49.27;37.90;;;21.10;99.90;;;;;;5118309;27;20479;-73
2021/09/04 09:59:28;;;;;;;49.93;38.33;;;21.10;99.90;;;;;;5118060;27;20464;-73
2021/09/04 10:01:56;;;;;;;48.67;36.67;;;22.00;99.90;;;;;;5118727;27;20481;-72
2021/09/04 10:04:27;;;;;;;47.47;38.90;;;22.80;99.90;;;;;;5117589;27;20475;-72
2021/09/04 10:06:55;;;;;;;57.13;41.17;;;23.80;99.90;;;;;;5120592;27;21649;-72
2021/09/04 10:09:23;;;;;;;61.43;42.90;;;24.60;99.90;;;;;;5118675;27;20460;-73
2021/09/04 10:11:51;;;;;;;59.40;43.40;;;24.30;99.90;;;;;;5117250;27;20459;-74
2021/09/04 10:14:19;;;;;;;60.17;42.63;;;24.40;99.90;;;;;;5126113;27;20935;-72
2021/09/04 10:16:51;;;;;;;57.07;43.40;;;24.10;99.90;;;;;;5122770;27;21009;-72
2021/09/04 10:19:18;;;;;;;55.63;43.80;;;23.30;99.90;;;;;;5125192;27;20550;-72
2021/09/04 10:21:46;;;;;;;61.23;43.40;;;23.10;99.90;;;;;;5120552;27;20460;-72
2021/09/04 10:24:14;;;;;;;58.17;44.93;;;22.70;99.90;;;;;;5122705;27;20992;-72
2021/09/04 10:26:43;;;;;;;66.30;45.80;;;22.80;99.90;;;;;;5128367;27;20938;-73
2021/09/04 10:29:13;;;;;;;60.90;44.60;;;23.00;99.90;;;;;;5123184;27;20453;-72
2021/09/04 10:32:02;;;;;;;56.40;43.60;;;23.00;99.90;;;;;;5121666;27;20501;-71
2021/09/04 10:34:32;;;;;;;57.20;44.10;;;23.00;99.90;;;;;;5122828;27;20450;-73
2021/09/04 10:37:02;;;;;;;56.30;43.60;;;22.90;99.90;;;;;;5131874;27;20444;-73
2021/09/04 10:39:50;;;;;;;49.77;40.60;;;23.00;99.90;;;;;;5118683;27;20452;-72
2021/09/04 10:42:19;;;;;;;48.10;38.57;;;23.50;99.90;;;;;;5117467;27;20456;-73
2021/09/04 10:44:49;;;;;;;57.23;40.90;;;23.50;99.90;;;;;;5131119;27;21018;-73
2021/09/04 10:47:18;;;;;;;49.47;40.30;;;23.90;99.90;;;;;;5126807;27;20492;-73
2021/09/04 10:49:52;;;;;;;47.97;37.43;;;24.70;99.90;;;;;;5122607;27;20463;-72
2021/09/04 10:52:53;;;;;;;51.07;39.67;;;25.30;99.90;;;;;;5121668;27;20456;-72
2021/09/04 10:55:21;;;;;;;49.30;40.63;;;25.30;99.90;;;;;;5125323;27;20975;-74
2021/09/04 10:57:50;;;;;;;48.00;41.30;;;25.60;99.90;;;;;;5114467;27;20460;-73
2021/09/04 11:00:25;;;;;;;53.60;41.70;;;25.30;99.90;;;;;;5118390;27;20477;-72
2021/09/04 11:02:53;;;;;;;53.37;42.90;;;24.60;99.90;;;;;;5121560;27;20512;-71
2021/09/04 11:05:41;;;;;;;53.63;39.37;;;24.70;99.90;;;;;;5115713;27;20456;-72
2021/09/04 11:08:10;;;;;;;46.20;38.47;;;24.30;99.90;;;;;;5112563;27;21040;-73
2021/09/04 11:10:38;;;;;;;48.90;40.47;;;24.50;99.90;;;;;;5121709;27;20479;-72
2021/09/04 11:13:36;;;;;;;50.27;38.17;;;24.80;99.90;;;;;;5118540;27;20451;-72
2021/09/04 11:16:35;;;;;;;56.03;41.80;;;24.40;99.90;;;;;;5126292;27;20973;-73
2021/09/04 11:19:05;;;;;;;50.63;39.07;;;24.20;99.90;;;;;;5124951;27;20459;-73
2021/09/04 11:21:44;;;;;;;52.90;39.50;;;25.00;99.90;;;;;;5128283;27;20490;-73
2021/09/04 11:24:12;;;;;;;43.67;38.80;;;25.90;99.90;;;;;;5127625;27;20495;-72
2021/09/04 11:26:48;;;;;;;47.97;40.33;;;26.10;99.90;;;;;;5131659;27;20458;-73
2021/09/04 11:29:16;;;;;;;46.03;38.73;;;26.20;99.90;;;;;;5133061;27;20474;-72
2021/09/04 11:31:51;;;;;;;47.63;37.40;;;26.20;99.90;;;;;;5124730;27;21012;-72
2021/09/04 11:34:18;;;;;;;41.87;37.37;;;26.10;99.90;;;;;;5120614;27;20516;-73
2021/09/04 11:36:47;;;;;;;45.03;39.03;;;26.10;99.90;;;;;;5117615;27;20931;-72
2021/09/04 11:39:15;;;;;;;47.30;40.00;;;25.90;99.90;;;;;;5116802;27;20460;-72
2021/09/04 11:41:46;;;;;;;43.60;38.43;;;25.20;99.90;;;;;;5125517;27;20493;-74
2021/09/04 11:44:19;;;;;;;50.23;40.87;;;25.80;99.90;;;;;;5117894;27;20459;-71
2021/09/04 11:46:46;;;;;;;47.17;39.80;;;26.10;99.90;;;;;;5122917;27;20458;-72
2021/09/04 11:49:13;;;;;;;44.37;39.20;;;26.40;99.90;;;;;;5126041;27;20453;-73
2021/09/04 11:54:38;;;;;;;42.50;38.00;;;26.90;99.90;;;;;;5112661;27;21064;-72
2021/09/04 11:57:23;;;;;;;40.77;35.97;;;27.00;99.90;;;;;;5116797;28;20471;-71
2021/09/04 12:00:11;;;;;;;40.90;35.20;;;27.20;99.90;;;;;;5110555;28;20460;-72
2021/09/04 12:02:45;;;;;;;42.63;36.23;;;26.40;99.90;;;;;;5109088;28;20473;-71
2021/09/04 12:05:12;;;;;;;42.10;36.97;;;27.00;99.90;;;;;;5111309;28;20531;-72
2021/09/04 12:07:40;;;;;;;43.83;36.60;;;27.40;99.90;;;;;;5108980;27;20463;-72
2021/09/04 12:10:11;;;;;;;39.80;35.60;;;28.10;99.90;;;;;;5105453;28;20947;-74
2021/09/04 12:12:40;;;;;;;42.60;36.90;;;28.20;99.90;;;;;;5107552;28;20582;-71
2021/09/04 12:15:11;;;;;;;39.80;35.60;;;28.40;99.90;;;;;;5108517;27;20461;-73
2021/09/04 12:17:48;;;;;;;44.73;39.20;;;28.40;99.90;;;;;;5109852;27;20514;-73
2021/09/04 12:20:16;;;;;;;40.00;35.67;;;28.80;99.90;;;;;;5106926;27;20969;-71
2021/09/04 12:22:44;;;;;;;43.57;37.17;;;28.50;99.90;;;;;;5106625;28;20877;-72
2021/09/04 12:25:29;;;;;;;41.27;35.97;;;28.20;99.90;;;;;;5109074;27;21006;-72
2021/09/04 12:28:05;;;;;;;40.27;36.10;;;28.00;99.90;;;;;;5106612;27;21002;-73
2021/09/04 12:30:35;;;;;;;46.40;36.77;;;27.60;99.90;;;;;;5110752;28;20863;-72
2021/09/04 12:33:07;;;;;;;38.57;33.80;;;27.50;99.90;;;;;;5108718;27;20985;-74
2021/09/04 12:35:58;;;;;;;42.37;34.37;;;27.70;99.90;;;;;;5110585;28;20513;-71